Time;durP1;ratioP1;P1;durP2;ratioP2;P2;SDS_P1;SDS_P2;PMS_P1;PMS_P2;Temp;Humidity;BMP_temperature;BMP_pressure;BME280_temperature;BME280_humidity;BME280_pressure;Samples;Min_cycle;Max_cycle;Signal;HPM_P1;HPM_P2
2022/01/16 00:00:20;;;;;;;44.33;19.13;;;5.20;99.90;;;;;;5113946;27;20103;-74
2022/01/16 00:05:26;;;;;;;48.80;19.95;;;5.00;99.90;;;;;;5116270;27;20509;-73
2022/01/16 00:07:53;;;;;;;45.72;19.40;;;5.10;99.90;;;;;;5130916;27;20038;-73
2022/01/16 00:10:20;;;;;;;43.40;17.98;;;4.60;99.90;;;;;;5096172;27;20402;-74
2022/01/16 00:12:49;;;;;;;44.13;17.83;;;4.70;99.90;;;;;;5112264;27;20035;-74
2022/01/16 00:15:16;;;;;;;50.15;21.10;;;5.00;99.90;;;;;;5096722;27;20055;-75
2022/01/16 00:18:09;;;;;;;49.40;20.08;;;4.30;99.90;;;;;;5130449;27;20378;-74
2022/01/16 00:20:35;;;;;;;54.33;18.95;;;4.30;99.90;;;;;;5113697;27;20087;-74
2022/01/16 00:23:04;;;;;;;50.88;19.40;;;4.30;99.90;;;;;;5113900;27;20039;-74
2022/01/16 00:25:30;;;;;;;48.47;18.25;;;4.30;99.90;;;;;;5113707;27;20046;-74
2022/01/16 00:27:55;;;;;;;40.08;17.70;;;4.30;99.90;;;;;;5130286;27;20043;-74
2022/01/16 00:30:21;;;;;;;45.58;17.80;;;4.40;99.90;;;;;;5129888;27;20039;-72
2022/01/16 00:32:47;;;;;;;45.50;18.27;;;4.90;99.90;;;;;;5113705;27;20127;-74
2022/01/16 00:35:13;;;;;;;50.10;20.75;;;4.40;99.90;;;;;;5113130;27;20042;-73
2022/01/16 00:37:40;;;;;;;49.55;19.38;;;4.90;99.90;;;;;;5130514;27;20104;-74
2022/01/16 00:40:09;;;;;;;44.83;19.98;;;4.30;99.90;;;;;;5130065;27;20038;-74
2022/01/16 00:42:35;;;;;;;48.05;19.75;;;4.30;99.90;;;;;;5130341;27;20067;-74
2022/01/16 00:45:02;;;;;;;44.08;17.73;;;4.30;99.90;;;;;;5113033;27;20070;-74
2022/01/16 00:47:28;;;;;;;47.08;18.40;;;4.70;99.90;;;;;;5113116;27;20450;-75
2022/01/16 00:49:54;;;;;;;49.63;19.50;;;4.30;99.90;;;;;;5112601;27;20061;-75
2022/01/16 00:52:20;;;;;;;48.72;19.75;;;4.80;99.90;;;;;;5128931;27;20070;-75
2022/01/16 00:54:45;;;;;;;47.53;20.10;;;4.10;99.90;;;;;;5129582;27;20035;-76
2022/01/16 00:57:11;;;;;;;43.47;18.38;;;4.10;99.90;;;;;;5112086;27;20421;-75
2022/01/16 00:59:37;;;;;;;45.75;18.95;;;4.60;99.90;;;;;;5113456;27;20042;-76
2022/01/16 01:02:03;;;;;;;36.10;15.65;;;4.20;99.90;;;;;;5111794;27;20039;-75
2022/01/16 01:04:31;;;;;;;45.90;18.00;;;4.20;99.90;;;;;;5113406;27;20144;-74
2022/01/16 01:06:57;;;;;;;50.53;20.40;;;4.20;99.90;;;;;;5096209;27;20053;-74
2022/01/16 01:09:24;;;;;;;43.88;19.15;;;5.20;99.90;;;;;;5113659;28;20039;-75
2022/01/16 01:11:50;;;;;;;41.83;19.35;;;4.50;99.90;;;;;;5082848;28;20075;-75
2022/01/16 01:19:16;;;;;;;45.90;19.38;;;4.70;99.90;;;;;;5105556;28;20538;-75
2022/01/16 01:21:41;;;;;;;45.60;20.25;;;4.20;99.90;;;;;;5075904;28;20075;-76
2022/01/16 01:24:07;;;;;;;53.08;21.58;;;4.70;99.90;;;;;;5092101;28;20464;-75
2022/01/16 01:26:40;;;;;;;42.70;19.42;;;4.10;99.90;;;;;;5092557;28;20051;-75
2022/01/16 01:29:05;;;;;;;47.70;20.95;;;4.80;99.90;;;;;;5108295;28;20451;-75
2022/01/16 01:31:31;;;;;;;57.10;23.58;;;4.30;99.90;;;;;;5075823;28;20075;-75
2022/01/16 01:33:57;;;;;;;49.70;20.38;;;4.10;99.90;;;;;;5075034;28;20123;-75
2022/01/16 01:36:23;;;;;;;53.38;22.85;;;4.10;99.90;;;;;;5109833;28;20383;-75
2022/01/16 01:38:49;;;;;;;57.45;23.13;;;4.20;99.90;;;;;;5092574;28;20036;-75
2022/01/16 01:41:15;;;;;;;51.25;21.05;;;4.80;99.90;;;;;;5108074;28;20107;-75
2022/01/16 01:51:42;;;;;;;66.57;26.95;;;4.10;99.90;;;;;;5105692;28;20047;-74
2022/01/16 01:54:08;;;;;;;58.70;23.85;;;4.00;99.90;;;;;;5108368;28;20065;-74
2022/01/16 01:56:39;;;;;;;59.45;23.23;;;4.40;99.90;;;;;;5092102;28;20100;-75
2022/01/16 01:59:06;;;;;;;66.57;26.00;;;4.70;99.90;;;;;;5072506;28;20070;-74
2022/01/16 02:01:32;;;;;;;62.33;26.83;;;4.70;99.90;;;;;;5089172;28;20039;-74
2022/01/16 02:03:58;;;;;;;70.97;29.58;;;4.60;99.90;;;;;;5108888;28;20092;-74
2022/01/16 02:06:30;;;;;;;67.18;28.48;;;4.30;99.90;;;;;;5111382;28;20044;-74
2022/01/16 02:09:03;;;;;;;67.15;27.05;;;5.40;99.90;;;;;;5093426;28;20035;-75
2022/01/16 02:11:31;;;;;;;65.88;25.90;;;4.30;99.90;;;;;;5092175;28;20725;-74
2022/01/16 02:14:06;;;;;;;73.03;28.30;;;5.40;99.90;;;;;;5094589;28;20040;-74
2022/01/16 02:28:05;;;;;;;61.17;25.48;;;4.50;99.90;;;;;;5130087;27;20074;-74
2022/01/16 02:35:31;;;;;;;63.38;26.98;;;4.90;99.90;;;;;;5115054;27;20173;-74
2022/01/16 02:37:56;;;;;;;64.05;27.85;;;4.30;99.90;;;;;;5113420;27;20135;-74
2022/01/16 02:40:25;;;;;;;63.42;25.63;;;4.80;99.90;;;;;;5113412;27;20088;-74
2022/01/16 02:42:52;;;;;;;68.43;26.50;;;4.90;99.90;;;;;;5095478;27;20043;-75
2022/01/16 02:45:31;;;;;;;77.13;28.08;;;4.40;99.90;;;;;;5088449;27;20491;-75
2022/01/16 02:48:02;;;;;;;58.20;23.13;;;5.10;99.90;;;;;;5129174;27;20147;-75
2022/01/16 02:50:29;;;;;;;56.50;24.25;;;4.60;99.90;;;;;;5113194;27;20033;-72
2022/01/16 02:52:55;;;;;;;63.13;23.88;;;4.80;99.90;;;;;;5111833;27;20027;-72
2022/01/16 02:55:22;;;;;;;60.17;24.70;;;4.20;99.90;;;;;;5112814;27;20039;-73
2022/01/16 02:57:54;;;;;;;56.38;21.95;;;4.60;99.90;;;;;;5112464;27;20498;-74
2022/01/16 03:00:21;;;;;;;63.00;25.08;;;4.10;99.90;;;;;;5129310;27;20054;-74
2022/01/16 03:02:48;;;;;;;60.85;25.08;;;5.00;99.90;;;;;;5127005;27;20598;-75
2022/01/16 03:05:15;;;;;;;64.70;26.20;;;5.20;99.90;;;;;;5108992;27;20608;-74
2022/01/16 03:07:42;;;;;;;75.55;27.05;;;4.30;99.90;;;;;;5108952;27;20047;-73
2022/01/16 03:12:54;;;;;;;77.55;30.55;;;4.20;99.90;;;;;;5127921;27;20452;-73
2022/01/16 03:15:21;;;;;;;78.45;28.15;;;4.30;99.90;;;;;;5117321;27;20035;-73
2022/01/16 03:23:12;;;;;;;67.95;26.95;;;5.20;99.90;;;;;;5104360;27;20424;-73
2022/01/16 03:25:37;;;;;;;68.75;27.02;;;5.00;99.90;;;;;;5075062;27;20043;-74
2022/01/16 03:28:03;;;;;;;79.45;28.00;;;4.40;99.90;;;;;;5105251;27;20080;-74
2022/01/16 03:30:29;;;;;;;75.72;30.65;;;5.00;99.90;;;;;;5110166;27;20035;-74
2022/01/16 03:32:55;;;;;;;84.60;29.25;;;4.80;99.90;;;;;;5129998;27;20039;-74
2022/01/16 03:35:22;;;;;;;75.22;27.73;;;5.10;99.90;;;;;;5104898;27;20071;-74
2022/01/16 03:37:47;;;;;;;71.93;28.02;;;4.40;99.90;;;;;;5113358;27;20042;-74
2022/01/16 03:40:14;;;;;;;78.45;27.85;;;4.40;99.90;;;;;;5128678;27;20478;-74
2022/01/16 03:42:40;;;;;;;95.60;31.25;;;4.40;99.90;;;;;;5130460;27;20156;-75
2022/01/16 03:45:07;;;;;;;81.97;28.95;;;4.50;99.90;;;;;;5128411;27;20035;-75
2022/01/16 03:47:33;;;;;;;80.50;29.17;;;5.40;99.90;;;;;;5085965;27;20039;-75
2022/01/16 03:49:59;;;;;;;97.03;32.05;;;5.50;99.90;;;;;;5112170;27;20120;-75
2022/01/16 03:52:25;;;;;;;87.20;30.60;;;4.90;99.90;;;;;;5111764;27;20059;-75
2022/01/16 03:54:51;;;;;;;88.65;31.38;;;4.80;99.90;;;;;;5122471;27;20042;-75
2022/01/16 03:57:17;;;;;;;94.45;29.35;;;4.60;99.90;;;;;;5111522;27;20486;-75
2022/01/16 03:59:43;;;;;;;91.82;31.33;;;4.80;99.90;;;;;;5107151;28;20118;-75
2022/01/16 04:02:09;;;;;;;93.85;32.30;;;5.60;99.90;;;;;;5106833;27;20193;-74
2022/01/16 04:04:35;;;;;;;83.78;29.38;;;4.70;99.90;;;;;;5108844;27;20036;-74
2022/01/16 04:07:01;;;;;;;88.53;29.83;;;5.80;99.90;;;;;;5089831;27;20727;-74
2022/01/16 04:09:27;;;;;;;88.07;30.73;;;4.80;99.90;;;;;;5091371;27;20402;-75
2022/01/16 04:11:56;;;;;;;92.15;31.42;;;5.60;99.90;;;;;;5093191;27;20128;-75
2022/01/16 04:15:31;;;;;;;92.32;29.25;;;5.70;99.90;;;;;;5108618;27;20115;-74
2022/01/16 04:17:20;;;;;;;95.18;28.13;;;5.70;99.90;;;;;;5126225;27;20184;-74
2022/01/16 04:19:46;;;;;;;86.85;28.92;;;4.90;99.90;;;;;;5110519;27;20506;-75
2022/01/16 04:22:13;;;;;;;94.82;33.33;;;5.60;99.90;;;;;;5088335;27;20093;-75
2022/01/16 04:24:40;;;;;;;99.80;31.27;;;4.80;99.90;;;;;;5128692;27;20127;-74
2022/01/16 04:27:06;;;;;;;105.38;32.22;;;5.00;99.90;;;;;;5105691;27;20035;-74
2022/01/16 04:29:32;;;;;;;89.25;29.23;;;4.90;99.90;;;;;;5105827;27;20188;-74
2022/01/16 04:31:58;;;;;;;102.28;30.80;;;5.50;99.90;;;;;;5109175;27;20114;-74
2022/01/16 04:34:24;;;;;;;104.70;32.00;;;6.00;99.90;;;;;;5110509;27;20027;-74
2022/01/16 04:36:49;;;;;;;113.40;32.85;;;6.10;99.90;;;;;;5091049;27;20387;-73
2022/01/16 04:39:19;;;;;;;110.82;32.72;;;5.10;99.90;;;;;;5123126;27;20080;-73
2022/01/16 04:44:29;;;;;;;108.75;32.45;;;5.70;99.90;;;;;;5125371;27;20051;-74
2022/01/16 04:46:56;;;;;;;99.78;31.85;;;6.30;99.90;;;;;;5112942;27;20042;-74
2022/01/16 04:49:21;;;;;;;87.55;28.23;;;6.00;99.90;;;;;;5129217;27;20031;-73
2022/01/16 04:51:47;;;;;;;97.18;30.13;;;5.70;99.90;;;;;;5096101;27;20039;-73
2022/01/16 04:54:13;;;;;;;96.70;27.85;;;5.20;99.90;;;;;;5129302;27;20079;-73
2022/01/16 04:56:39;;;;;;;98.60;30.25;;;5.40;99.90;;;;;;5111407;27;20039;-74
2022/01/16 04:59:05;;;;;;;109.88;31.67;;;5.40;99.90;;;;;;5127904;27;20046;-73
2022/01/16 05:01:31;;;;;;;90.40;30.88;;;5.40;99.90;;;;;;5109188;27;20039;-74
2022/01/16 05:03:57;;;;;;;99.03;30.25;;;5.40;99.90;;;;;;5127043;27;20102;-74
2022/01/16 05:06:23;;;;;;;84.25;28.98;;;6.30;99.90;;;;;;5086773;27;20422;-74
2022/01/16 05:08:49;;;;;;;101.93;30.70;;;6.00;99.90;;;;;;5109704;27;20046;-74
2022/01/16 05:11:20;;;;;;;112.35;31.58;;;5.70;99.90;;;;;;5111768;27;20045;-74
2022/01/16 05:18:57;;;;;;;100.55;32.08;;;6.40;99.90;;;;;;5126618;27;20047;-75
2022/01/16 05:21:23;;;;;;;99.80;29.60;;;6.60;99.90;;;;;;5109371;27;20530;-74
2022/01/16 05:23:49;;;;;;;99.28;29.05;;;5.50;99.90;;;;;;5110919;28;20045;-74
2022/01/16 05:26:18;;;;;;;92.38;29.42;;;6.60;99.90;;;;;;5102267;28;20554;-74
2022/01/16 05:28:44;;;;;;;98.63;31.70;;;7.40;99.90;;;;;;5125308;28;20043;-74
2022/01/16 05:31:10;;;;;;;113.07;34.65;;;5.70;99.90;;;;;;5110950;28;20113;-74
2022/01/16 05:33:36;;;;;;;112.78;31.70;;;6.20;99.90;;;;;;5124400;28;20172;-75
2022/01/16 05:36:02;;;;;;;110.18;32.80;;;5.70;99.90;;;;;;5125704;28;20123;-74
2022/01/16 05:38:27;;;;;;;105.90;30.02;;;6.40;99.90;;;;;;5117036;27;20043;-74
2022/01/16 05:40:53;;;;;;;113.22;35.60;;;6.70;99.90;;;;;;5113349;27;20043;-74
2022/01/16 05:43:19;;;;;;;130.90;33.78;;;6.00;99.90;;;;;;5114649;27;20082;-74
2022/01/16 05:45:44;;;;;;;106.20;32.83;;;6.90;99.90;;;;;;5114414;27;20043;-74
2022/01/16 05:48:10;;;;;;;106.70;31.10;;;6.00;99.90;;;;;;5130157;27;20387;-75
2022/01/16 05:50:36;;;;;;;111.10;30.80;;;5.80;99.90;;;;;;5112432;27;20038;-75
2022/01/16 05:53:02;;;;;;;121.55;31.88;;;5.80;99.90;;;;;;5113662;27;20039;-74
2022/01/16 05:55:35;;;;;;;115.57;32.20;;;7.10;99.90;;;;;;5114263;27;20035;-74
2022/01/16 05:58:01;;;;;;;131.77;35.80;;;5.80;99.90;;;;;;5113794;27;20035;-74
2022/01/16 06:00:27;;;;;;;120.43;33.88;;;6.90;99.90;;;;;;5131780;27;20165;-76
2022/01/16 06:02:53;;;;;;;114.88;33.60;;;6.00;99.90;;;;;;5092415;27;20588;-76
2022/01/16 06:05:18;;;;;;;120.43;31.90;;;6.90;99.90;;;;;;5128417;27;20773;-75
2022/01/16 06:07:50;;;;;;;121.97;32.88;;;6.10;99.90;;;;;;5123870;27;20376;-76
2022/01/16 06:10:16;;;;;;;99.78;29.15;;;6.20;99.90;;;;;;5107487;27;20390;-75
2022/01/16 06:12:42;;;;;;;125.18;32.38;;;7.00;99.90;;;;;;5095410;27;20122;-75
2022/01/16 06:15:08;;;;;;;100.53;32.72;;;6.60;99.90;;;;;;5132204;27;20045;-76
2022/01/16 06:17:33;;;;;;;116.28;33.33;;;6.80;99.90;;;;;;5132794;27;20051;-75
2022/01/16 06:19:59;;;;;;;109.10;33.55;;;5.90;99.90;;;;;;5079958;27;20043;-76
2022/01/16 06:22:25;;;;;;;122.35;34.47;;;7.30;99.90;;;;;;5129304;27;20407;-75
2022/01/16 06:24:50;;;;;;;117.07;33.15;;;7.30;99.90;;;;;;5112212;27;20886;-76
2022/01/16 06:27:16;;;;;;;108.93;33.13;;;7.10;99.90;;;;;;5112248;27;20076;-76
2022/01/16 06:29:42;;;;;;;139.40;36.83;;;7.20;99.90;;;;;;5113417;27;20035;-76
2022/01/16 06:32:08;;;;;;;120.38;30.52;;;6.40;99.90;;;;;;5124470;27;20035;-76
2022/01/16 06:34:33;;;;;;;121.68;33.03;;;7.20;99.90;;;;;;5129880;27;20118;-75
2022/01/16 06:36:59;;;;;;;135.73;36.80;;;7.20;99.90;;;;;;5128555;27;20122;-75
2022/01/16 06:39:25;;;;;;;94.38;32.60;;;6.10;99.90;;;;;;5091236;27;20382;-75
2022/01/16 06:41:51;;;;;;;132.40;36.83;;;7.20;99.90;;;;;;5128920;27;20126;-75
2022/01/16 06:44:16;;;;;;;115.57;31.05;;;7.50;99.90;;;;;;5096365;27;20131;-75
2022/01/16 06:46:42;;;;;;;105.15;31.13;;;7.10;99.90;;;;;;5131698;27;20039;-75
2022/01/16 06:49:10;;;;;;;151.73;39.15;;;6.50;99.90;;;;;;5113238;27;20130;-75
2022/01/16 06:51:37;;;;;;;121.63;36.08;;;8.00;99.90;;;;;;5113399;27;20054;-76
2022/01/16 06:54:03;;;;;;;125.45;36.47;;;6.60;99.90;;;;;;5114518;27;20055;-76
2022/01/16 06:56:30;;;;;;;112.40;34.05;;;7.60;99.90;;;;;;5127296;27;20043;-76
2022/01/16 06:58:56;;;;;;;119.30;35.30;;;6.70;99.90;;;;;;5112634;27;20088;-75
2022/01/16 07:01:22;;;;;;;130.93;36.53;;;7.70;99.90;;;;;;5130653;27;20152;-75
2022/01/16 07:03:49;;;;;;;131.55;39.20;;;6.60;99.90;;;;;;5104376;27;20039;-75
2022/01/16 07:06:15;;;;;;;141.15;40.38;;;6.60;99.90;;;;;;5114917;27;20077;-75
2022/01/16 07:08:41;;;;;;;124.18;36.00;;;7.20;99.90;;;;;;5130591;27;20077;-75
2022/01/16 07:11:07;;;;;;;124.18;34.78;;;7.00;99.90;;;;;;5113473;27;20366;-75
2022/01/16 07:13:33;;;;;;;107.93;32.97;;;7.00;99.90;;;;;;5128606;27;20039;-76
2022/01/16 07:15:59;;;;;;;120.00;36.88;;;7.70;99.90;;;;;;5129080;27;20415;-76
2022/01/16 07:18:27;;;;;;;118.10;36.05;;;7.60;99.90;;;;;;5090852;27;20368;-74
2022/01/16 07:20:54;;;;;;;110.57;33.40;;;6.90;99.90;;;;;;5111427;27;20096;-75
2022/01/16 07:23:20;;;;;;;129.13;36.90;;;7.00;99.90;;;;;;5112165;27;20740;-74
2022/01/16 07:25:47;;;;;;;131.48;38.22;;;6.90;99.90;;;;;;5115076;27;20047;-74
2022/01/16 07:28:13;;;;;;;115.40;34.42;;;7.10;99.90;;;;;;5114121;27;20086;-74
2022/01/16 07:30:39;;;;;;;119.13;34.47;;;7.10;99.90;;;;;;5113794;27;20039;-75
2022/01/16 07:33:06;;;;;;;122.07;36.78;;;7.80;99.90;;;;;;5114191;27;20479;-74
2022/01/16 07:35:33;;;;;;;127.78;38.35;;;7.80;99.90;;;;;;5111824;27;20036;-74
2022/01/16 07:37:59;;;;;;;135.63;41.20;;;6.80;99.90;;;;;;5115544;27;20116;-74
2022/01/16 07:40:26;;;;;;;118.57;37.40;;;6.90;99.90;;;;;;5092931;28;20036;-74
2022/01/16 07:42:52;;;;;;;95.40;34.53;;;8.20;99.90;;;;;;5124168;27;20129;-76
2022/01/16 07:45:18;;;;;;;100.05;34.22;;;7.90;99.90;;;;;;5097909;27;20041;-74
2022/01/16 07:47:44;;;;;;;111.80;36.45;;;8.00;99.90;;;;;;5131034;27;20035;-75
2022/01/16 07:50:11;;;;;;;127.47;39.25;;;7.50;99.90;;;;;;5097868;27;20035;-75
2022/01/16 07:52:37;;;;;;;115.95;40.00;;;8.30;99.90;;;;;;5111160;27;20043;-74
2022/01/16 07:55:03;;;;;;;102.25;34.53;;;7.10;99.90;;;;;;5085927;27;20036;-74
2022/01/16 07:57:29;;;;;;;115.72;38.10;;;8.10;99.90;;;;;;5095440;27;20078;-71
2022/01/16 07:59:55;;;;;;;108.32;35.00;;;8.30;99.90;;;;;;5112547;27;20078;-72
2022/01/16 08:02:20;;;;;;;95.80;34.78;;;7.70;99.90;;;;;;5112136;27;20193;-74
2022/01/16 08:04:46;;;;;;;90.50;32.15;;;7.50;99.90;;;;;;5111124;27;20426;-74
2022/01/16 08:07:12;;;;;;;86.70;32.58;;;7.90;99.90;;;;;;5111273;27;20064;-74
2022/01/16 08:09:38;;;;;;;98.30;35.63;;;8.10;99.90;;;;;;5111750;27;20031;-74
2022/01/16 08:12:06;;;;;;;90.13;34.35;;;7.30;99.90;;;;;;5107756;27;20039;-74
2022/01/16 08:14:32;;;;;;;91.88;34.72;;;7.40;99.90;;;;;;5109151;27;20054;-74
2022/01/16 08:16:58;;;;;;;87.10;32.50;;;7.80;99.90;;;;;;5109779;27;20062;-75
2022/01/16 08:19:25;;;;;;;80.15;30.83;;;8.60;99.90;;;;;;5129101;27;20043;-75
2022/01/16 08:21:51;;;;;;;103.18;36.75;;;7.30;99.90;;;;;;5084734;27;20040;-77
2022/01/16 08:24:17;;;;;;;93.50;35.88;;;7.80;99.90;;;;;;5110985;28;20050;-74
2022/01/16 08:26:43;;;;;;;90.95;33.13;;;7.60;99.90;;;;;;5127506;27;20046;-75
2022/01/16 08:29:09;;;;;;;81.45;32.22;;;7.40;99.90;;;;;;5113245;27;20046;-76
2022/01/16 08:31:35;;;;;;;75.82;30.60;;;7.40;99.90;;;;;;5097484;27;20039;-74
2022/01/16 08:34:00;;;;;;;80.55;32.40;;;8.20;99.90;;;;;;5097140;27;20093;-73
2022/01/16 08:36:26;;;;;;;75.15;32.50;;;8.80;99.90;;;;;;5111139;28;20039;-74
2022/01/16 08:38:54;;;;;;;79.97;30.05;;;8.10;99.90;;;;;;5077004;28;20035;-74
2022/01/16 08:41:24;;;;;;;87.25;32.63;;;7.60;99.90;;;;;;5115029;27;20096;-70
2022/01/16 08:43:50;;;;;;;68.00;30.25;;;8.20;99.90;;;;;;5130269;27;20054;-73
2022/01/16 08:46:16;;;;;;;80.60;31.42;;;7.80;99.90;;;;;;5115009;27;20387;-72
2022/01/16 08:48:42;;;;;;;81.22;31.10;;;7.70;99.90;;;;;;5130121;27;20062;-74
2022/01/16 08:51:08;;;;;;;71.38;30.90;;;8.80;99.90;;;;;;5130743;27;20124;-72
2022/01/16 08:53:34;;;;;;;72.32;29.90;;;8.60;99.90;;;;;;5130678;27;20043;-71
2022/01/16 08:56:00;;;;;;;78.07;32.92;;;7.90;99.90;;;;;;5113730;27;20104;-72
2022/01/16 08:58:27;;;;;;;66.85;29.02;;;8.00;99.90;;;;;;5129884;27;20093;-72
2022/01/16 09:00:53;;;;;;;63.20;29.17;;;8.90;99.90;;;;;;5092104;28;20035;-72
2022/01/16 09:03:20;;;;;;;65.10;29.15;;;8.00;99.90;;;;;;5120877;27;20987;-73
2022/01/16 09:05:46;;;;;;;67.60;28.88;;;8.50;99.90;;;;;;5112184;27;20042;-74
2022/01/16 09:08:13;;;;;;;57.97;27.85;;;8.80;99.90;;;;;;5095936;27;20066;-73
2022/01/16 09:10:42;;;;;;;64.32;28.38;;;8.40;99.90;;;;;;5125945;27;20074;-74
2022/01/16 09:13:12;;;;;;;60.38;28.15;;;8.90;99.90;;;;;;5127957;27;20135;-73
2022/01/16 09:15:43;;;;;;;60.50;28.63;;;9.10;99.90;;;;;;5113044;27;20650;-72
2022/01/16 09:18:12;;;;;;;58.78;27.33;;;9.30;99.90;;;;;;5100248;27;20819;-73
2022/01/16 09:20:38;;;;;;;57.17;27.27;;;8.40;99.90;;;;;;5101505;27;20082;-73
2022/01/16 09:23:03;;;;;;;59.15;27.33;;;8.30;99.90;;;;;;5113538;27;20418;-73
2022/01/16 09:25:29;;;;;;;51.97;26.42;;;9.00;99.90;;;;;;5131530;27;20043;-73
2022/01/16 09:27:55;;;;;;;56.65;27.50;;;9.10;99.90;;;;;;5132270;27;20044;-74
2022/01/16 09:30:22;;;;;;;57.25;27.55;;;8.90;99.90;;;;;;5132721;27;20415;-73
2022/01/16 09:32:50;;;;;;;58.90;25.55;;;9.00;99.90;;;;;;5112256;28;20389;-73
2022/01/16 09:35:17;;;;;;;56.60;27.48;;;8.70;99.90;;;;;;5113012;27;20039;-72
2022/01/16 09:37:44;;;;;;;56.40;27.55;;;8.40;99.90;;;;;;5110677;27;20030;-74
2022/01/16 09:40:12;;;;;;;56.80;27.92;;;9.50;99.90;;;;;;5104902;27;20042;-74
2022/01/16 09:42:38;;;;;;;56.58;27.33;;;8.60;99.90;;;;;;5106225;27;20147;-72
2022/01/16 09:45:07;;;;;;;51.28;27.17;;;8.60;99.90;;;;;;5125197;27;20478;-73
2022/01/16 09:47:33;;;;;;;56.47;28.23;;;9.20;99.90;;;;;;5124888;27;20057;-74
2022/01/16 09:49:59;;;;;;;57.13;29.80;;;8.70;99.90;;;;;;5107592;27;20046;-74
2022/01/16 09:52:25;;;;;;;49.78;25.85;;;9.60;99.90;;;;;;5105277;27;20039;-72
2022/01/16 09:54:51;;;;;;;51.47;25.58;;;9.20;99.90;;;;;;5108703;27;20504;-73
2022/01/16 09:57:17;;;;;;;47.63;25.38;;;9.20;99.90;;;;;;5113367;27;20043;-73
2022/01/16 09:59:45;;;;;;;46.90;24.98;;;9.30;99.90;;;;;;5106421;27;20042;-72
2022/01/16 10:02:11;;;;;;;48.30;27.08;;;9.60;99.90;;;;;;5107788;27;20088;-73
2022/01/16 10:04:39;;;;;;;47.05;25.67;;;9.60;99.90;;;;;;5107419;27;20769;-72
2022/01/16 10:07:11;;;;;;;46.92;24.35;;;9.40;99.90;;;;;;5123823;27;20060;-73
2022/01/16 10:09:39;;;;;;;46.53;24.65;;;9.70;99.90;;;;;;5124633;27;20034;-74
2022/01/16 10:12:14;;;;;;;45.28;23.42;;;9.30;99.90;;;;;;5108913;27;20064;-73
2022/01/16 10:14:50;;;;;;;42.08;23.75;;;9.00;99.90;;;;;;5104291;27;20114;-75
2022/01/16 10:17:17;;;;;;;47.33;23.83;;;9.60;99.90;;;;;;5123433;27;20563;-72
2022/01/16 10:19:43;;;;;;;36.55;21.13;;;9.10;99.90;;;;;;5123888;27;20042;-73
2022/01/16 10:22:11;;;;;;;42.30;23.80;;;9.20;99.90;;;;;;5125232;27;20046;-73
2022/01/16 10:24:39;;;;;;;40.25;24.08;;;8.80;99.90;;;;;;5105214;27;20094;-77
2022/01/16 10:27:08;;;;;;;42.05;23.25;;;9.20;99.90;;;;;;5130137;27;20047;-72
2022/01/16 10:29:42;;;;;;;42.03;23.75;;;8.90;99.90;;;;;;5129127;27;20866;-73
2022/01/16 10:32:18;;;;;;;43.60;24.05;;;9.40;99.90;;;;;;5091922;27;20082;-73
2022/01/16 10:34:52;;;;;;;49.38;24.60;;;9.20;99.90;;;;;;5096753;27;20031;-73
2022/01/16 10:37:32;;;;;;;39.95;22.95;;;8.90;99.90;;;;;;5091331;27;20837;-71
2022/01/16 10:40:09;;;;;;;42.72;23.02;;;8.90;99.90;;;;;;5094447;27;20047;-72
2022/01/16 10:42:37;;;;;;;39.45;21.55;;;9.50;99.90;;;;;;5127825;27;20042;-71
2022/01/16 10:45:07;;;;;;;37.63;21.75;;;8.90;99.90;;;;;;5110548;27;20760;-73
2022/01/16 10:47:47;;;;;;;39.78;21.02;;;9.60;99.90;;;;;;5118588;27;20043;-73
2022/01/16 10:50:19;;;;;;;43.53;22.67;;;9.60;99.90;;;;;;5113736;27;20368;-72
2022/01/16 10:53:09;;;;;;;41.42;22.17;;;8.90;99.90;;;;;;5128607;27;20047;-73
2022/01/16 10:55:44;;;;;;;37.72;20.77;;;8.90;99.90;;;;;;5117845;27;20039;-73
2022/01/16 10:58:13;;;;;;;35.35;20.42;;;8.90;99.90;;;;;;5120114;27;20105;-73
2022/01/16 11:00:41;;;;;;;37.75;20.63;;;9.30;99.90;;;;;;5116596;27;20047;-73
2022/01/16 11:03:09;;;;;;;39.03;20.85;;;9.60;99.90;;;;;;5102917;27;20055;-72
2022/01/16 11:05:41;;;;;;;36.30;20.75;;;8.90;99.90;;;;;;5110663;27;20061;-73
2022/01/16 11:08:15;;;;;;;37.97;20.77;;;9.00;99.90;;;;;;5120115;27;20051;-73
2022/01/16 11:10:50;;;;;;;33.95;19.92;;;9.30;99.90;;;;;;5123204;27;20369;-74
2022/01/16 11:13:18;;;;;;;33.20;19.58;;;9.20;99.90;;;;;;5128603;27;20158;-74
2022/01/16 11:15:52;;;;;;;35.50;20.17;;;9.40;99.90;;;;;;5127405;27;20098;-72
2022/01/16 11:18:21;;;;;;;37.50;19.73;;;8.80;99.90;;;;;;5129043;27;20522;-73
2022/01/16 11:21:08;;;;;;;30.30;17.75;;;8.80;99.90;;;;;;5111600;27;20043;-72
2022/01/16 11:26:23;;;;;;;29.05;17.92;;;9.10;99.90;;;;;;5124548;27;20051;-73
2022/01/16 11:28:54;;;;;;;35.38;19.20;;;9.30;99.90;;;;;;5107588;27;20086;-73
2022/01/16 11:31:19;;;;;;;34.55;19.73;;;8.90;99.90;;;;;;5122679;27;20038;-73
2022/01/16 11:33:46;;;;;;;32.97;18.27;;;9.40;99.90;;;;;;5109302;27;20091;-72
2022/01/16 11:36:18;;;;;;;36.83;19.50;;;8.80;99.90;;;;;;5103572;27;20049;-73
2022/01/16 11:38:57;;;;;;;31.08;17.60;;;9.30;99.90;;;;;;5107143;27;20043;-73
2022/01/16 11:41:32;;;;;;;35.60;17.90;;;8.90;99.90;;;;;;5123605;27;20047;-72
2022/01/16 11:43:58;;;;;;;;;;;9.20;99.90;;;;;;5128792;27;20046;-75
2022/01/16 11:46:29;;;;;;;23.05;14.63;;;8.80;99.90;;;;;;5112638;27;19926;-71
2022/01/16 11:49:01;;;;;;;30.65;15.43;;;9.00;99.90;;;;;;5111261;27;20046;-72
2022/01/16 11:51:36;;;;;;;31.73;17.63;;;9.00;99.90;;;;;;5128464;27;20096;-73
2022/01/16 11:54:13;;;;;;;;;;;8.60;99.90;;;;;;5111561;27;20038;-73
2022/01/16 11:56:41;;;;;;;28.40;15.07;;;9.00;99.90;;;;;;5111455;27;19919;-72
2022/01/16 11:59:30;;;;;;;26.40;14.68;;;8.60;99.90;;;;;;5127717;27;20520;-74
2022/01/16 12:02:08;;;;;;;32.58;14.45;;;8.50;99.90;;;;;;5125037;27;20047;-74
2022/01/16 12:04:33;;;;;;;30.02;14.32;;;9.00;99.90;;;;;;5127947;27;20038;-75
2022/01/16 12:07:17;;;;;;;27.88;13.45;;;8.60;99.90;;;;;;5110019;27;20042;-74
2022/01/16 12:12:14;;;;;;;29.40;13.45;;;9.00;99.90;;;;;;5107568;27;20045;-76
2022/01/16 12:14:50;;;;;;;23.20;13.07;;;8.90;99.90;;;;;;5105400;27;20041;-74
2022/01/16 12:17:35;;;;;;;22.98;12.75;;;8.50;99.90;;;;;;5106544;27;20051;-74
2022/01/16 12:20:13;;;;;;;27.83;12.68;;;8.80;99.90;;;;;;5074360;28;20797;-74
2022/01/16 12:22:58;;;;;;;20.73;11.43;;;8.60;99.90;;;;;;5103607;28;20044;-74
2022/01/16 12:25:37;;;;;;;23.85;11.63;;;8.60;99.90;;;;;;5103003;28;20047;-74
2022/01/16 12:28:09;;;;;;;23.48;12.77;;;8.40;99.90;;;;;;5085537;28;20043;-74
2022/01/16 12:30:35;;;;;;;19.98;9.90;;;8.60;99.90;;;;;;5097728;28;20053;-75
2022/01/16 12:33:16;;;;;;;28.15;10.43;;;8.60;99.90;;;;;;5100444;28;20042;-74
2022/01/16 12:35:42;;;;;;;18.27;10.00;;;8.60;99.90;;;;;;5103728;28;20829;-74
2022/01/16 12:38:28;;;;;;;17.92;8.32;;;8.50;99.90;;;;;;5086089;28;20131;-74
2022/01/16 12:41:21;;;;;;;16.23;8.73;;;8.20;99.90;;;;;;5103103;28;20043;-74
2022/01/16 12:43:56;;;;;;;16.33;7.80;;;8.20;99.90;;;;;;5086675;28;20050;-74
2022/01/16 12:46:35;;;;;;;18.67;8.63;;;8.20;99.90;;;;;;5087142;28;20043;-74
2022/01/16 12:49:20;;;;;;;17.27;7.95;;;8.10;99.90;;;;;;5103350;28;20121;-73
2022/01/16 12:51:49;;;;;;;17.95;8.50;;;8.10;99.90;;;;;;5095989;28;20077;-75
2022/01/16 12:54:17;;;;;;;19.60;7.90;;;8.10;99.90;;;;;;5104179;28;20043;-74
2022/01/16 12:56:51;;;;;;;14.90;7.93;;;8.00;99.90;;;;;;5103645;28;20046;-74
2022/01/16 12:59:22;;;;;;;16.33;7.95;;;8.10;99.90;;;;;;5103477;28;20510;-74
2022/01/16 13:01:52;;;;;;;15.38;7.07;;;8.00;99.90;;;;;;5103675;28;20480;-74
2022/01/16 13:04:22;;;;;;;15.52;6.93;;;7.80;99.90;;;;;;5103891;28;20075;-74
2022/01/16 13:06:48;;;;;;;13.90;7.30;;;7.80;99.90;;;;;;5086335;28;20047;-74
2022/01/16 13:09:14;;;;;;;17.75;8.18;;;7.90;99.90;;;;;;5103381;28;20039;-73
2022/01/16 13:11:42;;;;;;;14.90;7.57;;;7.80;99.90;;;;;;5085015;28;20518;-73
2022/01/16 13:14:12;;;;;;;11.13;6.78;;;7.80;99.90;;;;;;5086489;28;20420;-74
2022/01/16 13:16:41;;;;;;;14.15;6.88;;;7.90;99.90;;;;;;5096520;27;20158;-74
2022/01/16 13:19:14;;;;;;;12.88;7.15;;;7.80;99.90;;;;;;5109241;27;20133;-74
2022/01/16 13:21:43;;;;;;;11.77;6.95;;;7.70;99.90;;;;;;5107514;27;20053;-74
2022/01/16 13:24:21;;;;;;;15.40;6.50;;;7.60;99.90;;;;;;5089295;27;20058;-74
2022/01/16 13:26:47;;;;;;;14.88;6.47;;;7.70;99.90;;;;;;5089747;28;20133;-73
2022/01/16 13:29:15;;;;;;;13.32;7.38;;;7.70;99.90;;;;;;5116078;27;20071;-74
2022/01/16 13:31:41;;;;;;;12.60;6.75;;;7.60;99.90;;;;;;5126808;27;20918;-74
2022/01/16 13:34:16;;;;;;;13.07;7.00;;;7.70;99.90;;;;;;5109756;27;20814;-74